Information Last Ob Photographs Meteogram Network Table Neighbors Monthly Summaries Observation History Wind Roses Custom Wind Roses Data Calendar Satellite Cloud Product Download

26 October 2021 Observation History, [AUS] Austin Bergstrom, timezone: America/Chicago

Select Date: Time Order:

Show METARs   Show High Frequency MADIS

Previous Day
Time Wind
(mph)
Vis.
(mi.)
Sky Cond.
(100s ft)
Present Wx Temperature (ºF) Relative
Humidity
Pressure Snow
Depth
(in)
Precipitation (in.)
Air Dwpt Feels Like 6 hour altimeter
(in.)
sea level
(mb)
1 hr 3 hr 6 hr
Max.Min.
12:10 AMS 210 CLR
% 29.94
KAUS 260510Z AUTO 18002KT 10SM CLR 21/21 A2994 RMK T02100210 MADISHF
12:05 AMS 210 CLR
% 29.94
KAUS 260505Z AUTO 18002KT 10SM CLR 21/21 A2994 RMK T02100210 MADISHF
12:00 AMSSW 210 CLR
% 29.94
KAUS 260500Z AUTO 19002KT 10SM CLR 21/21 A2994 RMK T02100210 MADISHF

The IEM API webservice that provided data to this page. For more details, see documentation.

Data Notes

  • For recent years, this page also optionally shows observations from the MADIS High Frequency METAR dataset. This dataset had a problem with temperatures detailed here.